createdAt,value
2018-06-10T00:00:02.846Z,96245.25
2018-06-10T00:02:33.228Z,96239.95
2018-06-10T00:05:00.447Z,96237.80
2018-06-10T00:07:27.672Z,96233.83
2018-06-10T00:09:54.997Z,96226.09
2018-06-10T00:12:22.308Z,96224.09
2018-06-10T00:14:50.396Z,96217.31
2018-06-10T00:17:17.787Z,96219.42
2018-06-10T00:19:44.999Z,96206.37
2018-06-10T00:22:12.324Z,96204.38
2018-06-10T00:24:39.636Z,96213.50
2018-06-10T00:27:07.009Z,96212.67
2018-06-10T00:29:34.366Z,96206.88
2018-06-10T00:32:01.626Z,96203.23
2018-06-10T00:34:28.871Z,96197.77
2018-06-10T00:36:56.152Z,96198.77
2018-06-10T00:39:23.480Z,96195.14
2018-06-10T00:41:50.748Z,96192.81
2018-06-10T00:44:18.116Z,96193.80
2018-06-10T00:46:45.375Z,96199.09
2018-06-10T00:49:12.681Z,96188.19
2018-06-10T00:51:40.036Z,96189.69
2018-06-10T00:54:07.292Z,96183.57
2018-06-10T00:56:46.328Z,96175.79
2018-06-10T00:59:13.671Z,96173.63
2018-06-10T01:01:40.990Z,96180.60
2018-06-10T01:04:08.353Z,96182.58
2018-06-10T01:06:35.621Z,96187.36
2018-06-10T01:09:03.461Z,96181.57
2018-06-10T01:11:30.722Z,96182.89
2018-06-10T01:13:58.039Z,96189.50
2018-06-10T01:16:25.392Z,96188.17
2018-06-10T01:18:52.688Z,96174.15
2018-06-10T01:21:19.953Z,96178.44
2018-06-10T01:23:47.198Z,96174.28
2018-06-10T01:26:19.992Z,96172.63
2018-06-10T01:28:47.261Z,96167.69
2018-06-10T01:31:14.556Z,96163.55
2018-06-10T01:33:41.876Z,96165.38
2018-06-10T01:36:09.220Z,96172.63
2018-06-10T01:38:36.479Z,96167.69
2018-06-10T01:41:03.851Z,96164.55
2018-06-10T01:43:31.178Z,96155.47
2018-06-10T01:45:58.425Z,96158.61
2018-06-10T01:48:25.717Z,96153.95
2018-06-10T01:50:52.999Z,96151.81
2018-06-10T01:53:20.273Z,96148.69
2018-06-10T01:55:47.553Z,96144.72
2018-06-10T01:58:14.883Z,96144.37
2018-06-10T02:00:42.270Z,96132.98
2018-06-10T02:03:09.530Z,96108.81
2018-06-10T02:05:36.849Z,96132.33
2018-06-10T02:08:04.183Z,96129.47
2018-06-10T02:10:31.487Z,96129.00
2018-06-10T02:12:58.806Z,96137.23
2018-06-10T02:15:26.145Z,96141.20
2018-06-10T02:17:53.405Z,96142.48
2018-06-10T02:20:20.637Z,96148.05
2018-06-10T02:22:47.938Z,96140.30
2018-06-10T02:25:15.394Z,96135.68
2018-06-10T02:27:42.711Z,96134.84
2018-06-10T02:30:10.027Z,96137.81
2018-06-10T02:32:37.270Z,96138.80
2018-06-10T02:35:04.563Z,96134.18
2018-06-10T02:37:31.907Z,96133.20
2018-06-10T02:39:59.184Z,96139.14
2018-06-10T02:42:26.517Z,96138.96
2018-06-10T02:44:53.839Z,96143.05
2018-06-10T02:47:21.139Z,96141.73
2018-06-10T02:49:48.523Z,96145.36
2018-06-10T02:52:15.836Z,96139.92
2018-06-10T02:54:43.085Z,96141.25
2018-06-10T02:57:10.289Z,96146.68
2018-06-10T02:59:37.562Z,96140.41
2018-06-10T03:02:04.874Z,96146.11
2018-06-10T03:04:32.181Z,96143.95
2018-06-10T03:06:59.532Z,96151.23
2018-06-10T03:09:26.824Z,96145.53
2018-06-10T03:11:54.100Z,96146.26
2018-06-10T03:14:21.323Z,96148.42
2018-06-10T03:16:48.555Z,96152.34
2018-06-10T03:19:15.844Z,96149.02
2018-06-10T03:21:43.285Z,96144.58
2018-06-10T03:24:10.512Z,96148.42
2018-06-10T03:26:37.895Z,96150.07
2018-06-10T03:29:05.197Z,96155.20
2018-06-10T03:31:32.616Z,96151.20
2018-06-10T03:33:59.909Z,96150.25
2018-06-10T03:36:27.194Z,96141.19
2018-06-10T03:38:54.515Z,96047.57
2018-06-10T03:41:21.829Z,96148.94
2018-06-10T03:43:49.121Z,96161.65
2018-06-10T03:46:16.354Z,96156.67
2018-06-10T03:48:43.621Z,96152.13
2018-06-10T03:51:10.869Z,96158.22
2018-06-10T03:53:38.122Z,96155.83
2018-06-10T03:56:05.451Z,96147.58
2018-06-10T03:58:32.707Z,96161.44
2018-06-10T04:01:00.014Z,96155.67
2018-06-10T04:03:27.283Z,96164.01
2018-06-10T04:05:54.603Z,96163.86
2018-06-10T04:08:21.831Z,96160.81
2018-06-10T04:10:49.135Z,96160.67
2018-06-10T04:13:16.378Z,96163.05
2018-06-10T04:15:43.700Z,96161.11
2018-06-10T04:18:10.962Z,96158.35
2018-06-10T04:20:38.265Z,96151.90
2018-06-10T04:23:05.459Z,96156.55
2018-06-10T04:25:32.810Z,96152.98
2018-06-10T04:28:00.016Z,96159.06
2018-06-10T04:30:27.358Z,96157.77
2018-06-10T04:32:54.583Z,96157.64
2018-06-10T04:35:21.916Z,96156.69
2018-06-10T04:37:49.197Z,96153.23
2018-06-10T04:40:16.477Z,96150.58
2018-06-10T04:42:43.730Z,96147.43
2018-06-10T04:45:11.010Z,96148.75
2018-06-10T04:47:38.279Z,96145.46
2018-06-10T04:50:05.570Z,96148.45
2018-06-10T04:52:32.839Z,96152.41
2018-06-10T04:55:00.116Z,96148.84
2018-06-10T04:57:27.397Z,96148.86
2018-06-10T04:59:54.646Z,96147.86
2018-06-10T05:02:21.915Z,96149.19
2018-06-10T05:04:49.162Z,96153.49
2018-06-10T05:07:16.470Z,96154.30
2018-06-10T05:09:43.701Z,96155.45
2018-06-10T05:12:11.033Z,96152.16
2018-06-10T05:14:38.334Z,96149.50
2018-06-10T05:17:05.667Z,96149.83
2018-06-10T05:19:32.982Z,96147.84
2018-06-10T05:22:00.251Z,96152.81
2018-06-10T05:24:27.492Z,96158.78
2018-06-10T05:26:54.821Z,96158.94
2018-06-10T05:29:22.859Z,96156.45
2018-06-10T05:31:50.102Z,96159.95
2018-06-10T05:34:17.280Z,96161.06
2018-06-10T05:36:44.559Z,96169.33
2018-06-10T05:39:43.464Z,96167.69
2018-06-10T05:42:10.776Z,96175.29
2018-06-10T05:44:38.070Z,96178.27
2018-06-10T05:47:05.334Z,96186.53
2018-06-10T05:49:32.538Z,96185.66
2018-06-10T05:51:59.830Z,96191.28
2018-06-10T05:54:27.129Z,96191.45
2018-06-10T05:56:54.392Z,96194.81
2018-06-10T05:59:21.659Z,96166.23
2018-06-10T06:01:48.972Z,96186.88
2018-06-10T06:04:16.390Z,96184.70
2018-06-10T06:06:43.743Z,96184.55
2018-06-10T06:09:11.077Z,96188.00
2018-06-10T06:11:38.386Z,96172.74
2018-06-10T06:14:05.668Z,96176.83
2018-06-10T06:16:32.996Z,96187.91
2018-06-10T06:19:00.302Z,96181.91
2018-06-10T06:21:27.568Z,96083.63
2018-06-10T06:23:54.934Z,96187.74
2018-06-10T06:26:22.319Z,96183.27
2018-06-10T06:28:49.604Z,96183.41
2018-06-10T06:31:16.866Z,96183.02
2018-06-10T06:33:44.275Z,96176.19
2018-06-10T06:36:11.588Z,96179.27
2018-06-10T06:38:38.856Z,96178.17
2018-06-10T06:41:06.230Z,96181.27
2018-06-10T06:43:33.593Z,96184.38
2018-06-10T06:46:00.866Z,96167.23
2018-06-10T06:48:28.127Z,96173.89
2018-06-10T06:50:55.407Z,96181.21
2018-06-10T06:53:22.687Z,96181.67
2018-06-10T06:55:50.015Z,96182.48
2018-06-10T06:58:17.266Z,96183.24
2018-06-10T07:00:44.570Z,96180.06
2018-06-10T07:03:11.817Z,96182.51
2018-06-10T07:05:39.193Z,96180.67
2018-06-10T07:08:06.495Z,96181.98
2018-06-10T07:10:33.805Z,96180.32
2018-06-10T07:13:01.118Z,96184.88
2018-06-10T07:15:28.400Z,96184.30
2018-06-10T07:17:55.648Z,96185.76
2018-06-10T07:20:22.949Z,96193.72
2018-06-10T07:22:50.262Z,96203.13
2018-06-10T07:25:17.582Z,96192.97
2018-06-10T07:27:44.786Z,96201.85
2018-06-10T07:30:12.080Z,96198.06
2018-06-10T07:32:39.357Z,96199.58
2018-06-10T07:35:06.671Z,96199.70
2018-06-10T07:37:33.913Z,96200.45
2018-06-10T07:40:01.214Z,96204.59
2018-06-10T07:42:28.635Z,96204.53
2018-06-10T07:44:55.910Z,96199.68
2018-06-10T07:47:23.302Z,96200.88
2018-06-10T07:49:50.629Z,96197.78
2018-06-10T07:52:17.965Z,96202.92
2018-06-10T07:54:45.335Z,96202.55
2018-06-10T07:57:12.758Z,96199.11
2018-06-10T07:59:40.148Z,96200.54
2018-06-10T08:02:07.569Z,96199.83
2018-06-10T08:04:34.937Z,96198.29
2018-06-10T08:07:02.168Z,96194.53
2018-06-10T08:09:29.434Z,96191.78
2018-06-10T08:11:56.702Z,96189.04
2018-06-10T08:14:24.017Z,96173.86
2018-06-10T08:16:51.319Z,96179.73
2018-06-10T08:19:18.683Z,96179.91
2018-06-10T08:21:46.069Z,96181.61
2018-06-10T08:24:13.833Z,96171.78
2018-06-10T08:26:41.388Z,96177.70
2018-06-10T08:29:08.781Z,96177.50
2018-06-10T08:31:36.206Z,96181.46
2018-06-10T08:34:03.467Z,96186.12
2018-06-10T08:36:30.809Z,96183.08
2018-06-10T08:38:58.178Z,96188.87
2018-06-10T08:41:25.556Z,96189.41
2018-06-10T08:43:53.011Z,96169.62
2018-06-10T08:46:20.274Z,96190.94
2018-06-10T08:48:47.528Z,96185.08
2018-06-10T08:51:14.823Z,96186.23
2018-06-10T08:53:42.211Z,96184.79
2018-06-10T08:56:09.509Z,96182.14
2018-06-10T08:58:36.761Z,96179.94
2018-06-10T09:01:04.061Z,96185.52
2018-06-10T09:03:31.415Z,96186.05
2018-06-10T09:05:58.753Z,96185.88
2018-06-10T09:08:26.092Z,96177.25
2018-06-10T09:10:53.415Z,96177.73
2018-06-10T09:13:20.729Z,96096.20
2018-06-10T09:15:48.055Z,96181.83
2018-06-10T09:18:15.483Z,96159.91
2018-06-10T09:20:42.787Z,96174.88
2018-06-10T09:23:10.121Z,96171.52
2018-06-10T09:25:37.443Z,96180.84
2018-06-10T09:28:04.879Z,96174.50
2018-06-10T09:30:32.161Z,96171.88
2018-06-10T09:32:59.464Z,96178.03
2018-06-10T09:35:26.881Z,96177.88
2018-06-10T09:37:54.197Z,96176.84
2018-06-10T09:40:21.576Z,96177.27
2018-06-10T09:42:48.837Z,96182.35
2018-06-10T09:45:16.207Z,96185.42
2018-06-10T09:47:43.692Z,96181.78
2018-06-10T09:50:11.192Z,96178.38
2018-06-10T09:52:38.510Z,96179.13
2018-06-10T09:55:05.933Z,96172.73
2018-06-10T09:57:33.202Z,96175.56
2018-06-10T10:00:00.561Z,96172.63
2018-06-10T10:02:27.833Z,96178.77
2018-06-10T10:04:55.185Z,96177.46
2018-06-10T10:07:22.618Z,96172.38
2018-06-10T10:09:50.587Z,96168.03
2018-06-10T10:12:17.962Z,96162.02
2018-06-10T10:14:45.562Z,96167.95
2018-06-10T10:17:13.651Z,96165.95
2018-06-10T10:19:41.080Z,96162.50
2018-06-10T10:22:08.394Z,96155.45
2018-06-10T10:24:35.772Z,96149.27
2018-06-10T10:27:03.175Z,96152.34
2018-06-10T10:29:30.514Z,96152.45
2018-06-10T10:31:57.933Z,96145.09
2018-06-10T10:34:25.314Z,96153.56
2018-06-10T10:36:52.876Z,96149.37
2018-06-10T10:39:20.344Z,96153.58
2018-06-10T10:41:47.701Z,96142.75
2018-06-10T10:44:15.017Z,96141.80
2018-06-10T10:46:42.242Z,96142.00
2018-06-10T10:49:09.618Z,96138.78
2018-06-10T10:51:37.138Z,96139.17
2018-06-10T10:54:04.783Z,96135.59
2018-06-10T10:56:32.185Z,96131.13
2018-06-10T10:58:59.413Z,96126.12
2018-06-10T11:01:26.739Z,96127.98
2018-06-10T11:03:54.073Z,96132.33
2018-06-10T11:06:21.417Z,96128.15
2018-06-10T11:08:48.733Z,96136.44
2018-06-10T11:11:16.055Z,96133.27
2018-06-10T11:13:43.751Z,96133.57
2018-06-10T11:16:10.997Z,96135.70
2018-06-10T11:18:38.335Z,96132.56
2018-06-10T11:21:05.684Z,96133.27
2018-06-10T11:23:33.029Z,96129.62
2018-06-10T11:26:00.383Z,96063.80
2018-06-10T11:28:27.813Z,96130.14
2018-06-10T11:30:55.117Z,96133.32
2018-06-10T11:33:22.589Z,96123.34
2018-06-10T11:35:49.941Z,96125.69
2018-06-10T11:38:17.285Z,96121.45
2018-06-10T11:40:44.695Z,96122.03
2018-06-10T11:43:12.031Z,96122.45
2018-06-10T11:45:39.437Z,96123.00
2018-06-10T11:48:06.777Z,96118.84
2018-06-10T11:50:34.232Z,96123.40
2018-06-10T11:53:01.580Z,96114.58
2018-06-10T11:55:28.914Z,96115.27
2018-06-10T11:57:56.200Z,96112.43
2018-06-10T12:00:23.573Z,96102.14
2018-06-10T12:02:50.794Z,96098.42
2018-06-10T12:05:18.401Z,96103.75
2018-06-10T12:07:45.720Z,96101.31
2018-06-10T12:10:13.019Z,96093.69
2018-06-10T12:12:40.393Z,96089.84
2018-06-10T12:17:40.879Z,96093.29
2018-06-10T12:20:08.156Z,96094.77
2018-06-10T12:22:35.486Z,96090.86
2018-06-10T12:25:02.822Z,96092.98
2018-06-10T12:27:30.197Z,96091.92
2018-06-10T12:29:57.545Z,96092.70
2018-06-10T12:32:24.978Z,96087.52
2018-06-10T12:34:52.240Z,96085.53
2018-06-10T12:37:19.532Z,96087.74
2018-06-10T12:39:46.910Z,96097.12
2018-06-10T12:42:14.252Z,96098.34
2018-06-10T12:44:41.562Z,96092.08
2018-06-10T12:47:08.871Z,96099.39
2018-06-10T12:49:36.557Z,96090.31
2018-06-10T12:52:04.209Z,96091.39
2018-06-10T12:54:31.511Z,96092.20
2018-06-10T12:56:58.799Z,96086.13
2018-06-10T12:59:26.235Z,96087.52
2018-06-10T13:01:53.529Z,96084.67
2018-06-10T13:04:20.894Z,96091.16
2018-06-10T13:06:48.292Z,96087.34
2018-06-10T13:09:15.570Z,96088.77
2018-06-10T13:11:42.948Z,96088.64
2018-06-10T13:14:10.225Z,96087.16
2018-06-10T13:16:37.527Z,96090.36
2018-06-10T13:19:05.250Z,96083.55
2018-06-10T13:21:32.621Z,96089.69
2018-06-10T13:24:00.099Z,96090.20
2018-06-10T13:26:27.361Z,96080.61
2018-06-10T13:29:03.792Z,96080.02
2018-06-10T13:31:31.175Z,96077.48
2018-06-10T13:33:58.636Z,96076.02
2018-06-10T13:36:26.082Z,96079.03
2018-06-10T13:38:53.430Z,96080.69
2018-06-10T13:41:20.807Z,96092.07
2018-06-10T13:43:48.172Z,96071.58
2018-06-10T13:46:15.549Z,96089.55
2018-06-10T13:48:42.857Z,96086.18
2018-06-10T13:51:10.134Z,96086.47
2018-06-10T13:53:37.444Z,96094.69
2018-06-10T13:56:04.812Z,96094.88
2018-06-10T13:58:32.102Z,96094.88
2018-06-10T14:00:59.408Z,96101.10
2018-06-10T14:03:26.750Z,96095.67
2018-06-10T14:05:54.012Z,96098.87
2018-06-10T14:08:21.285Z,96088.73
2018-06-10T14:10:48.796Z,96086.48
2018-06-10T14:13:16.129Z,96096.07
2018-06-10T14:15:43.421Z,96083.55
2018-06-10T14:18:10.770Z,96096.56
2018-06-10T14:20:38.073Z,96102.09
2018-06-10T14:23:05.363Z,96095.08
2018-06-10T14:25:32.690Z,96102.81
2018-06-10T14:28:00.381Z,96107.44
2018-06-10T14:30:27.698Z,96103.12
2018-06-10T14:32:54.966Z,96104.47
2018-06-10T14:35:22.279Z,96090.64
2018-06-10T14:37:49.731Z,96084.95
2018-06-10T14:40:17.120Z,96081.63
2018-06-10T14:42:44.398Z,96072.06
2018-06-10T14:45:11.716Z,96070.67
2018-06-10T14:47:39.071Z,96068.63
2018-06-10T14:50:06.484Z,96075.47
2018-06-10T14:52:33.748Z,96067.43
2018-06-10T14:55:01.122Z,96073.76
2018-06-10T14:57:28.372Z,96064.61
2018-06-10T14:59:55.676Z,96070.48
2018-06-10T15:02:22.973Z,96067.20
2018-06-10T15:04:50.267Z,96066.55
2018-06-10T15:07:17.562Z,96068.27
2018-06-10T15:09:44.832Z,96075.89
2018-06-10T15:12:12.178Z,96069.64
2018-06-10T15:14:39.504Z,96063.16
2018-06-10T15:17:06.826Z,96050.91
2018-06-10T15:19:34.088Z,96052.87
2018-06-10T15:22:01.394Z,96041.70
2018-06-10T15:24:28.681Z,96038.39
2018-06-10T15:26:55.935Z,96038.70
2018-06-10T15:29:23.275Z,96029.26
2018-06-10T15:31:50.780Z,96036.77
2018-06-10T15:34:18.034Z,96034.43
2018-06-10T15:36:45.308Z,96010.67
2018-06-10T15:39:12.635Z,96027.37
2018-06-10T15:41:40.037Z,96024.48
2018-06-10T15:44:07.413Z,96029.23
2018-06-10T15:46:34.730Z,95934.03
2018-06-10T15:49:02.024Z,96024.66
2018-06-10T15:51:29.373Z,96026.06
2018-06-10T15:53:56.656Z,96031.76
2018-06-10T15:56:24.192Z,96029.25
2018-06-10T15:58:51.629Z,96033.12
2018-06-10T16:01:18.943Z,96021.59
2018-06-10T16:03:46.301Z,96029.36
2018-06-10T16:06:13.634Z,96024.06
2018-06-10T16:08:40.917Z,96016.84
2018-06-10T16:11:08.237Z,96011.78
2018-06-10T16:13:35.651Z,96008.81
2018-06-10T16:16:03.259Z,96017.77
2018-06-10T16:18:30.627Z,96015.78
2018-06-10T16:20:57.904Z,96019.27
2018-06-10T16:23:25.395Z,96024.84
2018-06-10T16:25:52.700Z,96027.59
2018-06-10T16:28:20.037Z,96034.65
2018-06-10T16:30:47.340Z,96035.70
2018-06-10T16:33:14.645Z,96032.22
2018-06-10T16:35:42.087Z,96033.50
2018-06-10T16:38:09.492Z,96035.79
2018-06-10T16:40:36.852Z,96030.64
2018-06-10T16:43:04.351Z,96028.52
2018-06-10T16:45:31.700Z,96031.11
2018-06-10T16:47:59.021Z,96034.98
2018-06-10T16:50:26.421Z,96028.93
2018-06-10T16:52:53.788Z,96007.16
2018-06-10T16:55:21.134Z,96021.53
2018-06-10T16:57:48.448Z,96022.87
2018-06-10T17:00:15.841Z,96017.17
2018-06-10T17:02:43.427Z,96027.17
2018-06-10T17:05:10.915Z,96023.45
2018-06-10T17:07:38.475Z,96014.05
2018-06-10T17:10:05.981Z,96014.92
2018-06-10T17:12:33.302Z,96012.80
2018-06-10T17:15:03.546Z,96019.52
2018-06-10T17:17:30.992Z,96000.21
2018-06-10T17:19:58.647Z,96018.76
2018-06-10T17:22:25.988Z,96019.81
2018-06-10T17:24:53.364Z,96024.50
2018-06-10T17:27:20.778Z,96019.02
2018-06-10T17:29:48.072Z,96022.22
2018-06-10T17:32:15.485Z,96015.73
2018-06-10T17:34:42.978Z,96010.38
2018-06-10T17:37:10.222Z,96012.84
2018-06-10T17:39:38.253Z,96016.50
2018-06-10T17:42:15.292Z,96012.89
2018-06-10T17:44:43.266Z,96008.11
2018-06-10T17:47:10.639Z,96013.19
2018-06-10T17:49:38.660Z,96006.16
2018-06-10T17:52:06.057Z,96004.81
2018-06-10T17:54:33.360Z,95996.30
2018-06-10T17:57:05.783Z,95999.95
2018-06-10T17:59:33.292Z,95998.03
2018-06-10T18:02:00.705Z,95994.89
2018-06-10T18:04:28.020Z,95987.88
2018-06-10T18:06:55.640Z,95991.24
2018-06-10T18:09:22.988Z,95996.00
2018-06-10T18:11:50.579Z,96004.21
2018-06-10T18:14:18.040Z,96001.00
2018-06-10T18:16:45.403Z,95991.52
2018-06-10T18:19:12.677Z,95991.98
2018-06-10T18:21:39.998Z,95998.80
2018-06-10T18:24:07.311Z,95995.42
2018-06-10T18:26:34.795Z,96004.48
2018-06-10T18:29:02.053Z,96001.91
2018-06-10T18:31:29.382Z,96007.14
2018-06-10T18:33:56.759Z,96017.73
2018-06-10T18:36:24.105Z,96023.20
2018-06-10T18:38:51.399Z,96027.12
2018-06-10T18:41:18.712Z,96028.57
2018-06-10T18:43:46.028Z,96035.02
2018-06-10T18:46:13.349Z,96038.33
2018-06-10T18:48:40.767Z,96032.12
2018-06-10T18:51:08.004Z,96035.92
2018-06-10T18:53:35.350Z,96025.95
2018-06-10T18:56:02.667Z,96043.90
2018-06-10T18:58:30.017Z,96038.63
2018-06-10T19:00:57.365Z,96043.66
2018-06-10T19:03:24.857Z,96038.81
2018-06-10T19:05:52.230Z,96034.09
2018-06-10T19:08:19.573Z,96029.02
2018-06-10T19:10:46.841Z,96027.26
2018-06-10T19:13:14.130Z,96025.22
2018-06-10T19:15:41.824Z,96035.42
2018-06-10T19:18:09.039Z,96045.56
2018-06-10T19:20:36.404Z,96043.72
2018-06-10T19:23:03.752Z,96051.48
2018-06-10T19:25:31.109Z,96064.22
2018-06-10T19:27:58.537Z,96064.40
2018-06-10T19:30:25.843Z,96078.20
2018-06-10T19:32:53.236Z,96081.88
2018-06-10T19:35:20.622Z,96079.34
2018-06-10T19:37:49.112Z,96070.13
2018-06-10T19:40:16.393Z,96079.43
2018-06-10T19:42:43.697Z,96083.54
2018-06-10T19:45:10.990Z,96079.91
2018-06-10T19:47:50.747Z,96084.34
2018-06-10T19:50:18.033Z,96088.95
2018-06-10T19:52:45.331Z,96093.33
2018-06-10T19:55:12.652Z,96096.27
2018-06-10T19:57:53.477Z,96098.16
2018-06-10T20:00:21.742Z,96100.50
2018-06-10T20:02:49.144Z,96108.33
2018-06-10T20:05:22.431Z,96101.09
2018-06-10T20:07:49.783Z,96105.87
2018-06-10T20:10:17.209Z,96108.16
2018-06-10T20:12:44.521Z,96112.30
2018-06-10T20:15:11.835Z,96124.98
2018-06-10T20:17:39.189Z,96129.87
2018-06-10T20:20:06.890Z,96129.27
2018-06-10T20:22:35.109Z,96136.44
2018-06-10T20:25:15.976Z,96132.53
2018-06-10T20:27:44.083Z,96134.88
2018-06-10T20:30:11.865Z,96125.81
2018-06-10T20:32:39.299Z,96124.60
2018-06-10T20:35:06.806Z,96130.86
2018-06-10T20:37:34.247Z,96136.92
2018-06-10T20:40:01.797Z,96140.73
2018-06-10T20:42:29.355Z,96137.88
2018-06-10T20:44:56.743Z,96137.41
2018-06-10T20:47:24.164Z,96131.09
2018-06-10T20:49:51.623Z,96133.52
2018-06-10T20:52:19.210Z,96127.34
2018-06-10T20:54:47.154Z,96129.48
2018-06-10T20:57:15.336Z,96131.79
2018-06-10T20:59:43.229Z,96128.81
2018-06-10T21:02:12.531Z,96135.39
2018-06-10T21:04:40.190Z,96137.13
2018-06-10T21:07:08.333Z,96134.52
2018-06-10T21:09:36.935Z,96134.92
2018-06-10T21:12:10.204Z,96143.83
2018-06-10T21:14:43.342Z,96144.92
2018-06-10T21:17:10.787Z,96150.41
2018-06-10T21:19:38.273Z,96146.41
2018-06-10T21:22:05.728Z,96152.77
2018-06-10T21:24:32.990Z,96154.41
2018-06-10T21:27:00.362Z,96161.02
2018-06-10T21:29:27.725Z,96162.63
2018-06-10T21:31:55.047Z,96166.13
2018-06-10T21:34:34.319Z,96169.48
2018-06-10T21:37:02.452Z,96177.60
2018-06-10T21:39:29.817Z,96186.08
2018-06-10T21:41:57.740Z,96183.26
2018-06-10T21:44:25.083Z,96187.22
2018-06-10T21:46:53.653Z,96195.79
2018-06-10T21:49:21.032Z,96190.13
2018-06-10T21:51:48.358Z,96194.70
2018-06-10T21:54:15.729Z,96207.43
2018-06-10T21:56:43.063Z,96210.34
2018-06-10T21:59:21.678Z,96203.44
2018-06-10T22:01:49.146Z,96198.83
2018-06-10T22:04:20.262Z,96194.01
2018-06-10T22:06:47.619Z,96185.20
2018-06-10T22:09:14.960Z,96183.56
2018-06-10T22:11:42.651Z,96182.66
2018-06-10T22:14:10.081Z,96147.50
2018-06-10T22:16:37.640Z,96169.06
2018-06-10T22:19:05.395Z,96172.66
2018-06-10T22:21:49.672Z,96174.42
2018-06-10T22:24:17.767Z,96178.52
2018-06-10T22:26:45.079Z,96165.14
2018-06-10T22:29:12.381Z,96160.91
2018-06-10T22:31:39.706Z,96160.59
2018-06-10T22:34:07.058Z,96158.75
2018-06-10T22:36:34.400Z,96157.00
2018-06-10T22:39:01.703Z,96154.72
2018-06-10T22:41:28.959Z,96156.09
2018-06-10T22:43:56.339Z,96159.72
2018-06-10T22:46:23.595Z,96146.45
2018-06-10T22:48:50.886Z,96120.37
2018-06-10T22:51:18.329Z,96133.93
2018-06-10T22:54:22.779Z,96133.78
2018-06-10T22:56:50.118Z,96140.97
2018-06-10T22:59:17.391Z,96139.47
2018-06-10T23:01:44.709Z,96134.33
2018-06-10T23:04:11.993Z,96136.81
2018-06-10T23:06:39.305Z,96146.08
2018-06-10T23:09:07.158Z,96147.59
2018-06-10T23:11:34.436Z,96154.22
2018-06-10T23:14:01.817Z,96157.48
2018-06-10T23:16:29.114Z,96160.18
2018-06-10T23:18:56.535Z,96162.51
2018-06-10T23:21:23.821Z,96163.67
2018-06-10T23:23:51.894Z,96162.94
2018-06-10T23:26:19.162Z,96155.83
2018-06-10T23:28:46.517Z,96148.70
2018-06-10T23:31:13.793Z,96157.80
2018-06-10T23:33:41.123Z,96157.00
2018-06-10T23:36:08.470Z,96154.54
2018-06-10T23:38:35.812Z,96157.67
2018-06-10T23:41:03.177Z,96156.38
2018-06-10T23:43:30.416Z,96153.08
2018-06-10T23:45:57.762Z,96155.42
2018-06-10T23:48:25.162Z,96147.81
2018-06-10T23:50:52.405Z,96146.16
2018-06-10T23:53:19.688Z,96139.55
2018-06-10T23:55:46.944Z,96132.88
2018-06-10T23:58:14.167Z,96132.70
